sensor_id;sensor_type;location;lat;lon;timestamp;temperature;humidity
6756;DHT22;3415;51.148;7.014;2023-02-15T00:01:20;3.90;1.00
6756;DHT22;3415;51.148;7.014;2023-02-15T00:03:48;3.90;1.00
6756;DHT22;3415;51.148;7.014;2023-02-15T00:06:15;3.90;1.00
6756;DHT22;3415;51.148;7.014;2023-02-15T00:08:44;3.80;1.00
6756;DHT22;3415;51.148;7.014;2023-02-15T00:11:14;3.80;1.00
6756;DHT22;3415;51.148;7.014;2023-02-15T00:13:41;3.90;1.00
6756;DHT22;3415;51.148;7.014;2023-02-15T00:16:10;3.90;1.00
6756;DHT22;3415;51.148;7.014;2023-02-15T00:18:37;4.00;1.00
6756;DHT22;3415;51.148;7.014;2023-02-15T00:21:06;3.90;1.00
6756;DHT22;3415;51.148;7.014;2023-02-15T00:23:33;3.80;1.00
6756;DHT22;3415;51.148;7.014;2023-02-15T00:26:06;3.70;1.00
6756;DHT22;3415;51.148;7.014;2023-02-15T00:28:32;3.60;1.00
6756;DHT22;3415;51.148;7.014;2023-02-15T00:31:04;3.70;1.00
6756;DHT22;3415;51.148;7.014;2023-02-15T00:33:31;3.70;1.00
6756;DHT22;3415;51.148;7.014;2023-02-15T00:35:58;3.60;1.00
6756;DHT22;3415;51.148;7.014;2023-02-15T00:38:26;3.50;1.00
6756;DHT22;3415;51.148;7.014;2023-02-15T00:40:53;3.50;1.00
6756;DHT22;3415;51.148;7.014;2023-02-15T00:43:21;3.50;1.00
6756;DHT22;3415;51.148;7.014;2023-02-15T00:45:48;3.50;1.00
6756;DHT22;3415;51.148;7.014;2023-02-15T00:48:15;3.30;1.00
6756;DHT22;3415;51.148;7.014;2023-02-15T00:50:44;3.30;1.00
6756;DHT22;3415;51.148;7.014;2023-02-15T00:53:11;3.40;1.00
6756;DHT22;3415;51.148;7.014;2023-02-15T00:55:38;3.40;1.00
6756;DHT22;3415;51.148;7.014;2023-02-15T00:58:06;3.40;1.00
6756;DHT22;3415;51.148;7.014;2023-02-15T01:00:34;3.30;1.00
6756;DHT22;3415;51.148;7.014;2023-02-15T01:03:01;3.30;1.00
6756;DHT22;3415;51.148;7.014;2023-02-15T01:05:28;3.30;1.00
6756;DHT22;3415;51.148;7.014;2023-02-15T01:07:56;3.30;1.00
6756;DHT22;3415;51.148;7.014;2023-02-15T01:10:23;3.30;1.00
6756;DHT22;3415;51.148;7.014;2023-02-15T01:12:50;3.30;1.00
6756;DHT22;3415;51.148;7.014;2023-02-15T01:15:17;3.30;1.00
6756;DHT22;3415;51.148;7.014;2023-02-15T01:17:45;3.30;1.00
6756;DHT22;3415;51.148;7.014;2023-02-15T01:20:17;3.20;1.00
6756;DHT22;3415;51.148;7.014;2023-02-15T01:22:44;3.10;1.00
6756;DHT22;3415;51.148;7.014;2023-02-15T01:25:11;3.10;1.00
6756;DHT22;3415;51.148;7.014;2023-02-15T01:27:38;3.20;1.00
6756;DHT22;3415;51.148;7.014;2023-02-15T01:30:06;3.20;1.00
6756;DHT22;3415;51.148;7.014;2023-02-15T01:32:34;3.20;1.00
6756;DHT22;3415;51.148;7.014;2023-02-15T01:35:02;3.20;1.00
6756;DHT22;3415;51.148;7.014;2023-02-15T01:37:30;3.10;1.00
6756;DHT22;3415;51.148;7.014;2023-02-15T01:39:56;3.10;1.00
6756;DHT22;3415;51.148;7.014;2023-02-15T01:42:26;3.10;1.00
6756;DHT22;3415;51.148;7.014;2023-02-15T01:44:55;3.10;1.00
6756;DHT22;3415;51.148;7.014;2023-02-15T01:47:32;3.00;1.00
6756;DHT22;3415;51.148;7.014;2023-02-15T01:50:08;3.00;1.00
6756;DHT22;3415;51.148;7.014;2023-02-15T01:52:37;3.00;1.00
6756;DHT22;3415;51.148;7.014;2023-02-15T01:55:06;3.00;1.00
6756;DHT22;3415;51.148;7.014;2023-02-15T01:57:35;3.00;1.00
6756;DHT22;3415;51.148;7.014;2023-02-15T02:00:04;3.00;1.00
6756;DHT22;3415;51.148;7.014;2023-02-15T02:02:32;3.00;1.00
6756;DHT22;3415;51.148;7.014;2023-02-15T02:05:00;2.90;1.00
6756;DHT22;3415;51.148;7.014;2023-02-15T02:07:36;2.90;1.00
6756;DHT22;3415;51.148;7.014;2023-02-15T02:10:05;3.00;1.00
6756;DHT22;3415;51.148;7.014;2023-02-15T02:12:33;2.90;1.00
6756;DHT22;3415;51.148;7.014;2023-02-15T02:15:01;2.80;1.00
6756;DHT22;3415;51.148;7.014;2023-02-15T02:17:34;2.80;1.00
6756;DHT22;3415;51.148;7.014;2023-02-15T02:23:19;2.80;1.00
6756;DHT22;3415;51.148;7.014;2023-02-15T02:32:12;2.80;1.00
6756;DHT22;3415;51.148;7.014;2023-02-15T02:34:48;2.80;1.00
6756;DHT22;3415;51.148;7.014;2023-02-15T02:37:22;2.80;1.00
6756;DHT22;3415;51.148;7.014;2023-02-15T02:39:55;2.70;1.00
6756;DHT22;3415;51.148;7.014;2023-02-15T02:42:29;2.70;1.00
6756;DHT22;3415;51.148;7.014;2023-02-15T02:45:05;2.70;1.00
6756;DHT22;3415;51.148;7.014;2023-02-15T02:47:38;2.60;1.00
6756;DHT22;3415;51.148;7.014;2023-02-15T02:50:13;2.60;1.00
6756;DHT22;3415;51.148;7.014;2023-02-15T02:52:42;2.60;1.00
6756;DHT22;3415;51.148;7.014;2023-02-15T02:55:12;2.60;1.00
6756;DHT22;3415;51.148;7.014;2023-02-15T02:57:46;2.50;1.00
6756;DHT22;3415;51.148;7.014;2023-02-15T03:00:15;2.50;1.00
6756;DHT22;3415;51.148;7.014;2023-02-15T03:02:45;2.50;1.00
6756;DHT22;3415;51.148;7.014;2023-02-15T03:05:16;2.40;1.00
6756;DHT22;3415;51.148;7.014;2023-02-15T03:07:47;2.40;1.00
6756;DHT22;3415;51.148;7.014;2023-02-15T03:10:15;2.40;1.00
6756;DHT22;3415;51.148;7.014;2023-02-15T03:12:44;2.40;1.00
6756;DHT22;3415;51.148;7.014;2023-02-15T03:15:14;2.40;1.00
6756;DHT22;3415;51.148;7.014;2023-02-15T03:17:44;2.40;1.00
6756;DHT22;3415;51.148;7.014;2023-02-15T03:20:16;2.40;1.00
6756;DHT22;3415;51.148;7.014;2023-02-15T03:22:47;2.30;1.00
6756;DHT22;3415;51.148;7.014;2023-02-15T03:25:18;2.30;1.00
6756;DHT22;3415;51.148;7.014;2023-02-15T03:27:48;2.30;1.00
6756;DHT22;3415;51.148;7.014;2023-02-15T03:30:19;2.30;1.00
6756;DHT22;3415;51.148;7.014;2023-02-15T03:32:48;2.20;1.00
6756;DHT22;3415;51.148;7.014;2023-02-15T03:35:18;2.20;1.00
6756;DHT22;3415;51.148;7.014;2023-02-15T03:37:50;2.20;1.00
6756;DHT22;3415;51.148;7.014;2023-02-15T03:40:23;2.20;1.00
6756;DHT22;3415;51.148;7.014;2023-02-15T03:43:12;2.10;1.00
6756;DHT22;3415;51.148;7.014;2023-02-15T03:45:45;2.10;1.00
6756;DHT22;3415;51.148;7.014;2023-02-15T03:48:22;2.20;1.00
6756;DHT22;3415;51.148;7.014;2023-02-15T03:50:52;2.20;1.00
6756;DHT22;3415;51.148;7.014;2023-02-15T03:53:39;2.20;1.00
6756;DHT22;3415;51.148;7.014;2023-02-15T03:56:06;2.20;1.00
6756;DHT22;3415;51.148;7.014;2023-02-15T03:58:33;2.20;1.00
6756;DHT22;3415;51.148;7.014;2023-02-15T04:01:25;2.20;1.00
6756;DHT22;3415;51.148;7.014;2023-02-15T04:04:26;2.10;1.00
6756;DHT22;3415;51.148;7.014;2023-02-15T04:06:56;2.10;1.00
6756;DHT22;3415;51.148;7.014;2023-02-15T04:09:23;2.20;1.00
6756;DHT22;3415;51.148;7.014;2023-02-15T04:12:07;2.20;1.00
6756;DHT22;3415;51.148;7.014;2023-02-15T04:14:34;2.10;1.00
6756;DHT22;3415;51.148;7.014;2023-02-15T04:17:18;2.10;1.00
6756;DHT22;3415;51.148;7.014;2023-02-15T04:19:45;2.00;1.00
6756;DHT22;3415;51.148;7.014;2023-02-15T04:22:31;2.00;1.00
6756;DHT22;3415;51.148;7.014;2023-02-15T04:25:16;2.00;1.00
6756;DHT22;3415;51.148;7.014;2023-02-15T04:27:44;1.90;1.00
6756;DHT22;3415;51.148;7.014;2023-02-15T04:30:13;1.90;1.00
6756;DHT22;3415;51.148;7.014;2023-02-15T04:32:40;2.00;1.00
6756;DHT22;3415;51.148;7.014;2023-02-15T04:35:08;2.00;1.00
6756;DHT22;3415;51.148;7.014;2023-02-15T04:37:37;2.00;1.00
6756;DHT22;3415;51.148;7.014;2023-02-15T04:40:05;2.00;1.00
6756;DHT22;3415;51.148;7.014;2023-02-15T04:42:32;2.00;1.00
6756;DHT22;3415;51.148;7.014;2023-02-15T04:44:59;2.00;1.00
6756;DHT22;3415;51.148;7.014;2023-02-15T04:47:26;1.90;1.00
6756;DHT22;3415;51.148;7.014;2023-02-15T04:49:53;1.90;1.00
6756;DHT22;3415;51.148;7.014;2023-02-15T04:54:48;1.90;1.00
6756;DHT22;3415;51.148;7.014;2023-02-15T04:57:15;1.90;1.00
6756;DHT22;3415;51.148;7.014;2023-02-15T04:59:41;1.80;1.00
6756;DHT22;3415;51.148;7.014;2023-02-15T05:02:08;1.90;1.00
6756;DHT22;3415;51.148;7.014;2023-02-15T05:04:35;1.80;1.00
6756;DHT22;3415;51.148;7.014;2023-02-15T05:09:29;1.90;1.00
6756;DHT22;3415;51.148;7.014;2023-02-15T05:11:57;1.90;1.00
6756;DHT22;3415;51.148;7.014;2023-02-15T05:14:24;1.90;1.00
6756;DHT22;3415;51.148;7.014;2023-02-15T05:16:51;1.90;1.00
6756;DHT22;3415;51.148;7.014;2023-02-15T05:19:19;2.00;1.00
6756;DHT22;3415;51.148;7.014;2023-02-15T05:21:46;2.10;1.00
6756;DHT22;3415;51.148;7.014;2023-02-15T05:24:12;2.00;1.00
6756;DHT22;3415;51.148;7.014;2023-02-15T05:26:58;2.00;1.00
6756;DHT22;3415;51.148;7.014;2023-02-15T05:29:43;2.10;1.00
6756;DHT22;3415;51.148;7.014;2023-02-15T05:32:12;2.10;1.00
6756;DHT22;3415;51.148;7.014;2023-02-15T05:34:39;2.10;1.00
6756;DHT22;3415;51.148;7.014;2023-02-15T05:37:06;2.10;1.00
6756;DHT22;3415;51.148;7.014;2023-02-15T05:39:33;2.10;1.00
6756;DHT22;3415;51.148;7.014;2023-02-15T05:42:02;2.00;1.00
6756;DHT22;3415;51.148;7.014;2023-02-15T05:44:29;2.00;1.00
6756;DHT22;3415;51.148;7.014;2023-02-15T05:46:55;2.00;1.00
6756;DHT22;3415;51.148;7.014;2023-02-15T05:49:22;2.00;1.00
6756;DHT22;3415;51.148;7.014;2023-02-15T05:51:49;2.10;1.00
6756;DHT22;3415;51.148;7.014;2023-02-15T05:54:16;2.10;1.00
6756;DHT22;3415;51.148;7.014;2023-02-15T05:56:42;2.10;1.00
6756;DHT22;3415;51.148;7.014;2023-02-15T05:59:11;2.10;1.00
6756;DHT22;3415;51.148;7.014;2023-02-15T06:01:38;2.10;1.00
6756;DHT22;3415;51.148;7.014;2023-02-15T06:04:04;2.10;1.00
6756;DHT22;3415;51.148;7.014;2023-02-15T06:06:31;2.10;1.00
6756;DHT22;3415;51.148;7.014;2023-02-15T06:09:00;2.20;1.00
6756;DHT22;3415;51.148;7.014;2023-02-15T06:11:26;2.10;1.00
6756;DHT22;3415;51.148;7.014;2023-02-15T06:13:53;2.20;1.00
6756;DHT22;3415;51.148;7.014;2023-02-15T06:16:21;2.20;1.00
6756;DHT22;3415;51.148;7.014;2023-02-15T06:18:48;2.10;1.00
6756;DHT22;3415;51.148;7.014;2023-02-15T06:21:15;2.10;1.00
6756;DHT22;3415;51.148;7.014;2023-02-15T06:23:42;2.20;1.00
6756;DHT22;3415;51.148;7.014;2023-02-15T06:26:08;2.20;1.00
6756;DHT22;3415;51.148;7.014;2023-02-15T06:28:35;2.30;1.00
6756;DHT22;3415;51.148;7.014;2023-02-15T06:31:02;2.30;1.00
6756;DHT22;3415;51.148;7.014;2023-02-15T06:33:31;2.30;1.00
6756;DHT22;3415;51.148;7.014;2023-02-15T06:35:59;2.30;1.00
6756;DHT22;3415;51.148;7.014;2023-02-15T06:38:26;2.20;1.00
6756;DHT22;3415;51.148;7.014;2023-02-15T06:40:52;2.20;1.00
6756;DHT22;3415;51.148;7.014;2023-02-15T06:43:19;2.20;1.00
6756;DHT22;3415;51.148;7.014;2023-02-15T06:45:46;2.00;1.00
6756;DHT22;3415;51.148;7.014;2023-02-15T06:48:13;2.10;1.00
6756;DHT22;3415;51.148;7.014;2023-02-15T06:50:41;2.00;1.00
6756;DHT22;3415;51.148;7.014;2023-02-15T06:53:08;2.00;1.00
6756;DHT22;3415;51.148;7.014;2023-02-15T06:55:35;1.90;1.00
6756;DHT22;3415;51.148;7.014;2023-02-15T06:58:01;1.90;1.00
6756;DHT22;3415;51.148;7.014;2023-02-15T07:02:56;1.80;1.00
6756;DHT22;3415;51.148;7.014;2023-02-15T07:05:23;1.80;1.00
6756;DHT22;3415;51.148;7.014;2023-02-15T07:07:51;1.80;1.00
6756;DHT22;3415;51.148;7.014;2023-02-15T07:10:18;1.90;1.00
6756;DHT22;3415;51.148;7.014;2023-02-15T07:12:46;1.80;1.00
6756;DHT22;3415;51.148;7.014;2023-02-15T07:15:14;1.90;1.00
6756;DHT22;3415;51.148;7.014;2023-02-15T07:17:42;2.00;1.00
6756;DHT22;3415;51.148;7.014;2023-02-15T07:20:14;2.10;1.00
6756;DHT22;3415;51.148;7.014;2023-02-15T07:22:42;2.10;1.00
6756;DHT22;3415;51.148;7.014;2023-02-15T07:25:11;2.10;1.00
6756;DHT22;3415;51.148;7.014;2023-02-15T07:27:39;2.10;1.00
6756;DHT22;3415;51.148;7.014;2023-02-15T07:30:08;2.20;1.00
6756;DHT22;3415;51.148;7.014;2023-02-15T07:32:35;2.20;1.00
6756;DHT22;3415;51.148;7.014;2023-02-15T07:35:02;2.30;1.00
6756;DHT22;3415;51.148;7.014;2023-02-15T07:37:29;2.40;1.00
6756;DHT22;3415;51.148;7.014;2023-02-15T07:39:56;2.50;1.00
6756;DHT22;3415;51.148;7.014;2023-02-15T07:42:24;2.50;1.00
6756;DHT22;3415;51.148;7.014;2023-02-15T07:44:51;2.50;1.00
6756;DHT22;3415;51.148;7.014;2023-02-15T07:47:18;2.60;1.00
6756;DHT22;3415;51.148;7.014;2023-02-15T07:49:45;2.60;1.00
6756;DHT22;3415;51.148;7.014;2023-02-15T07:52:11;2.80;1.00
6756;DHT22;3415;51.148;7.014;2023-02-15T07:54:38;2.90;1.00
6756;DHT22;3415;51.148;7.014;2023-02-15T07:57:05;3.00;1.00
6756;DHT22;3415;51.148;7.014;2023-02-15T07:59:33;3.20;1.00
6756;DHT22;3415;51.148;7.014;2023-02-15T08:02:00;3.30;1.00
6756;DHT22;3415;51.148;7.014;2023-02-15T08:04:27;3.40;1.00
6756;DHT22;3415;51.148;7.014;2023-02-15T08:06:54;3.50;1.00
6756;DHT22;3415;51.148;7.014;2023-02-15T08:09:21;3.70;1.00
6756;DHT22;3415;51.148;7.014;2023-02-15T08:11:48;3.80;1.00
6756;DHT22;3415;51.148;7.014;2023-02-15T08:14:17;4.00;1.00
6756;DHT22;3415;51.148;7.014;2023-02-15T08:16:47;4.30;1.00
6756;DHT22;3415;51.148;7.014;2023-02-15T08:19:16;4.60;1.00
6756;DHT22;3415;51.148;7.014;2023-02-15T08:21:46;4.60;1.00
6756;DHT22;3415;51.148;7.014;2023-02-15T08:24:16;5.10;1.00
6756;DHT22;3415;51.148;7.014;2023-02-15T08:26:46;5.50;1.00
6756;DHT22;3415;51.148;7.014;2023-02-15T08:29:13;6.20;1.00
6756;DHT22;3415;51.148;7.014;2023-02-15T08:31:41;6.20;1.00
6756;DHT22;3415;51.148;7.014;2023-02-15T08:34:12;6.70;1.00
6756;DHT22;3415;51.148;7.014;2023-02-15T08:36:40;6.50;1.00
6756;DHT22;3415;51.148;7.014;2023-02-15T08:39:07;6.80;1.00
6756;DHT22;3415;51.148;7.014;2023-02-15T08:41:35;7.40;1.00
6756;DHT22;3415;51.148;7.014;2023-02-15T08:44:04;7.70;1.00
6756;DHT22;3415;51.148;7.014;2023-02-15T08:46:32;8.00;1.00
6756;DHT22;3415;51.148;7.014;2023-02-15T08:49:00;8.20;1.00
6756;DHT22;3415;51.148;7.014;2023-02-15T08:51:30;9.00;1.00
6756;DHT22;3415;51.148;7.014;2023-02-15T08:53:58;9.90;1.00
6756;DHT22;3415;51.148;7.014;2023-02-15T08:56:27;10.80;1.00
6756;DHT22;3415;51.148;7.014;2023-02-15T08:58:54;10.70;99.90
6756;DHT22;3415;51.148;7.014;2023-02-15T09:01:23;11.10;99.90
6756;DHT22;3415;51.148;7.014;2023-02-15T09:03:53;11.90;99.90
6756;DHT22;3415;51.148;7.014;2023-02-15T09:06:22;11.70;99.90
6756;DHT22;3415;51.148;7.014;2023-02-15T09:08:50;12.60;99.90
6756;DHT22;3415;51.148;7.014;2023-02-15T09:11:20;12.80;99.90
6756;DHT22;3415;51.148;7.014;2023-02-15T09:13:51;13.10;99.90
6756;DHT22;3415;51.148;7.014;2023-02-15T09:16:19;13.20;99.90
6756;DHT22;3415;51.148;7.014;2023-02-15T09:18:47;12.80;99.90
6756;DHT22;3415;51.148;7.014;2023-02-15T09:21:17;12.80;99.90
6756;DHT22;3415;51.148;7.014;2023-02-15T09:23:46;13.70;99.90
6756;DHT22;3415;51.148;7.014;2023-02-15T09:26:18;14.20;99.90
6756;DHT22;3415;51.148;7.014;2023-02-15T09:28:46;13.80;99.90
6756;DHT22;3415;51.148;7.014;2023-02-15T09:31:15;13.90;99.90
6756;DHT22;3415;51.148;7.014;2023-02-15T09:33:44;14.00;99.90
6756;DHT22;3415;51.148;7.014;2023-02-15T09:36:15;14.10;99.90
6756;DHT22;3415;51.148;7.014;2023-02-15T09:38:42;15.10;99.90
6756;DHT22;3415;51.148;7.014;2023-02-15T09:44:14;15.60;99.90
6756;DHT22;3415;51.148;7.014;2023-02-15T09:47:03;16.70;99.90
6756;DHT22;3415;51.148;7.014;2023-02-15T09:49:39;16.00;99.90
6756;DHT22;3415;51.148;7.014;2023-02-15T09:52:21;15.90;99.90
6756;DHT22;3415;51.148;7.014;2023-02-15T09:55:06;15.50;99.90
6756;DHT22;3415;51.148;7.014;2023-02-15T09:57:41;14.30;99.90
6756;DHT22;3415;51.148;7.014;2023-02-15T10:00:15;14.40;99.90
6756;DHT22;3415;51.148;7.014;2023-02-15T10:02:58;15.70;99.90
6756;DHT22;3415;51.148;7.014;2023-02-15T10:05:39;14.80;99.90
6756;DHT22;3415;51.148;7.014;2023-02-15T10:08:22;14.80;99.90
6756;DHT22;3415;51.148;7.014;2023-02-15T10:11:00;14.20;99.90
6756;DHT22;3415;51.148;7.014;2023-02-15T10:13:57;14.40;99.90
6756;DHT22;3415;51.148;7.014;2023-02-15T10:16:36;14.50;99.90
6756;DHT22;3415;51.148;7.014;2023-02-15T10:19:11;14.60;99.90
6756;DHT22;3415;51.148;7.014;2023-02-15T10:21:50;14.30;99.90
6756;DHT22;3415;51.148;7.014;2023-02-15T10:24:30;14.80;99.90
6756;DHT22;3415;51.148;7.014;2023-02-15T10:27:07;14.60;99.90
6756;DHT22;3415;51.148;7.014;2023-02-15T10:29:39;15.40;99.90
6756;DHT22;3415;51.148;7.014;2023-02-15T10:32:16;16.00;99.90
6756;DHT22;3415;51.148;7.014;2023-02-15T10:34:51;15.70;99.90
6756;DHT22;3415;51.148;7.014;2023-02-15T10:40:31;15.60;99.90
6756;DHT22;3415;51.148;7.014;2023-02-15T10:43:20;15.50;99.90
6756;DHT22;3415;51.148;7.014;2023-02-15T10:45:58;16.10;99.90
6756;DHT22;3415;51.148;7.014;2023-02-15T10:48:42;16.30;99.90
6756;DHT22;3415;51.148;7.014;2023-02-15T10:51:19;16.20;99.90
6756;DHT22;3415;51.148;7.014;2023-02-15T10:54:04;14.50;99.90
6756;DHT22;3415;51.148;7.014;2023-02-15T10:56:38;14.60;99.90
6756;DHT22;3415;51.148;7.014;2023-02-15T10:59:40;14.60;99.90
6756;DHT22;3415;51.148;7.014;2023-02-15T11:02:18;14.30;99.90
6756;DHT22;3415;51.148;7.014;2023-02-15T11:04:53;15.80;99.90
6756;DHT22;3415;51.148;7.014;2023-02-15T11:07:25;16.00;99.90
6756;DHT22;3415;51.148;7.014;2023-02-15T11:09:59;15.90;99.90
6756;DHT22;3415;51.148;7.014;2023-02-15T11:12:28;16.30;99.90
6756;DHT22;3415;51.148;7.014;2023-02-15T11:15:00;16.30;99.90
6756;DHT22;3415;51.148;7.014;2023-02-15T11:17:36;16.40;99.90
6756;DHT22;3415;51.148;7.014;2023-02-15T11:20:14;17.40;99.90
6756;DHT22;3415;51.148;7.014;2023-02-15T11:22:47;17.50;99.90
6756;DHT22;3415;51.148;7.014;2023-02-15T11:25:18;18.00;99.90
6756;DHT22;3415;51.148;7.014;2023-02-15T11:27:48;17.40;99.90
6756;DHT22;3415;51.148;7.014;2023-02-15T11:30:20;17.20;99.90
6756;DHT22;3415;51.148;7.014;2023-02-15T11:32:50;17.30;99.90
6756;DHT22;3415;51.148;7.014;2023-02-15T11:35:23;17.70;99.90
6756;DHT22;3415;51.148;7.014;2023-02-15T11:37:57;18.70;99.90
6756;DHT22;3415;51.148;7.014;2023-02-15T11:40:28;18.30;99.90
6756;DHT22;3415;51.148;7.014;2023-02-15T11:43:00;16.80;99.90
6756;DHT22;3415;51.148;7.014;2023-02-15T11:45:30;16.90;99.90
6756;DHT22;3415;51.148;7.014;2023-02-15T11:47:59;17.60;99.90
6756;DHT22;3415;51.148;7.014;2023-02-15T11:50:31;18.50;99.90
6756;DHT22;3415;51.148;7.014;2023-02-15T11:53:01;18.10;99.90
6756;DHT22;3415;51.148;7.014;2023-02-15T11:55:29;17.70;99.90
6756;DHT22;3415;51.148;7.014;2023-02-15T11:58:01;17.70;99.90
6756;DHT22;3415;51.148;7.014;2023-02-15T12:00:34;18.30;99.90
6756;DHT22;3415;51.148;7.014;2023-02-15T12:03:09;19.20;99.90
6756;DHT22;3415;51.148;7.014;2023-02-15T12:05:42;19.00;99.90
6756;DHT22;3415;51.148;7.014;2023-02-15T12:08:15;18.60;99.90
6756;DHT22;3415;51.148;7.014;2023-02-15T12:10:51;18.30;99.90
6756;DHT22;3415;51.148;7.014;2023-02-15T12:13:22;18.60;99.90
6756;DHT22;3415;51.148;7.014;2023-02-15T12:15:51;17.50;99.90
6756;DHT22;3415;51.148;7.014;2023-02-15T12:18:35;16.40;99.90
6756;DHT22;3415;51.148;7.014;2023-02-15T12:21:06;14.50;99.90
6756;DHT22;3415;51.148;7.014;2023-02-15T12:23:34;14.00;99.90
6756;DHT22;3415;51.148;7.014;2023-02-15T12:26:06;13.80;99.90
6756;DHT22;3415;51.148;7.014;2023-02-15T12:28:35;13.80;99.90
6756;DHT22;3415;51.148;7.014;2023-02-15T12:31:07;13.40;99.90
6756;DHT22;3415;51.148;7.014;2023-02-15T12:33:41;13.30;99.90
6756;DHT22;3415;51.148;7.014;2023-02-15T12:36:15;13.30;99.90
6756;DHT22;3415;51.148;7.014;2023-02-15T12:39:04;13.20;99.90
6756;DHT22;3415;51.148;7.014;2023-02-15T12:41:31;13.00;99.90
6756;DHT22;3415;51.148;7.014;2023-02-15T12:44:07;12.90;99.90
6756;DHT22;3415;51.148;7.014;2023-02-15T12:46:41;13.00;99.90
6756;DHT22;3415;51.148;7.014;2023-02-15T12:49:17;12.90;99.90
6756;DHT22;3415;51.148;7.014;2023-02-15T12:51:46;12.80;99.90
6756;DHT22;3415;51.148;7.014;2023-02-15T12:54:33;13.00;99.90
6756;DHT22;3415;51.148;7.014;2023-02-15T12:57:23;13.40;99.90
6756;DHT22;3415;51.148;7.014;2023-02-15T12:59:53;13.40;99.90
6756;DHT22;3415;51.148;7.014;2023-02-15T13:02:23;13.20;99.90
6756;DHT22;3415;51.148;7.014;2023-02-15T13:04:53;13.20;99.90
6756;DHT22;3415;51.148;7.014;2023-02-15T13:07:21;13.10;99.90
6756;DHT22;3415;51.148;7.014;2023-02-15T13:09:49;13.40;99.90
6756;DHT22;3415;51.148;7.014;2023-02-15T13:12:20;13.40;99.90
6756;DHT22;3415;51.148;7.014;2023-02-15T13:14:50;13.50;99.90
6756;DHT22;3415;51.148;7.014;2023-02-15T13:17:21;13.30;99.90
6756;DHT22;3415;51.148;7.014;2023-02-15T13:19:52;13.60;99.90
6756;DHT22;3415;51.148;7.014;2023-02-15T13:22:22;13.60;99.90
6756;DHT22;3415;51.148;7.014;2023-02-15T13:24:54;13.50;99.90
6756;DHT22;3415;51.148;7.014;2023-02-15T13:27:24;13.80;99.90
6756;DHT22;3415;51.148;7.014;2023-02-15T13:29:55;13.80;99.90
6756;DHT22;3415;51.148;7.014;2023-02-15T13:32:28;14.20;99.90
6756;DHT22;3415;51.148;7.014;2023-02-15T13:34:58;13.70;99.90
6756;DHT22;3415;51.148;7.014;2023-02-15T13:37:40;13.70;99.90
6756;DHT22;3415;51.148;7.014;2023-02-15T13:40:13;13.50;99.90
6756;DHT22;3415;51.148;7.014;2023-02-15T13:42:43;13.30;99.90
6756;DHT22;3415;51.148;7.014;2023-02-15T13:45:27;13.40;99.90
6756;DHT22;3415;51.148;7.014;2023-02-15T13:48:00;13.50;99.90
6756;DHT22;3415;51.148;7.014;2023-02-15T13:50:43;13.50;99.90
6756;DHT22;3415;51.148;7.014;2023-02-15T13:53:27;13.50;99.90
6756;DHT22;3415;51.148;7.014;2023-02-15T13:55:58;13.50;99.90
6756;DHT22;3415;51.148;7.014;2023-02-15T13:58:50;13.60;99.90
6756;DHT22;3415;51.148;7.014;2023-02-15T14:01:31;13.60;99.90
6756;DHT22;3415;51.148;7.014;2023-02-15T14:04:33;13.60;99.90
6756;DHT22;3415;51.148;7.014;2023-02-15T14:07:30;13.60;99.90
6756;DHT22;3415;51.148;7.014;2023-02-15T14:10:09;13.70;99.90
6756;DHT22;3415;51.148;7.014;2023-02-15T14:12:52;13.70;99.90
6756;DHT22;3415;51.148;7.014;2023-02-15T14:15:33;13.90;99.90
6756;DHT22;3415;51.148;7.014;2023-02-15T14:18:10;13.80;99.90
6756;DHT22;3415;51.148;7.014;2023-02-15T14:20:49;13.60;99.90
6756;DHT22;3415;51.148;7.014;2023-02-15T14:23:27;13.60;99.90
6756;DHT22;3415;51.148;7.014;2023-02-15T14:26:00;13.70;99.90
6756;DHT22;3415;51.148;7.014;2023-02-15T14:28:35;13.60;99.90
6756;DHT22;3415;51.148;7.014;2023-02-15T14:31:04;13.50;99.90
6756;DHT22;3415;51.148;7.014;2023-02-15T14:33:37;13.50;99.90
6756;DHT22;3415;51.148;7.014;2023-02-15T14:36:07;13.60;99.90
6756;DHT22;3415;51.148;7.014;2023-02-15T14:38:59;13.50;99.90
6756;DHT22;3415;51.148;7.014;2023-02-15T14:41:31;13.40;99.90
6756;DHT22;3415;51.148;7.014;2023-02-15T14:44:08;13.40;99.90
6756;DHT22;3415;51.148;7.014;2023-02-15T14:46:44;13.30;99.90
6756;DHT22;3415;51.148;7.014;2023-02-15T14:49:15;13.30;99.90
6756;DHT22;3415;51.148;7.014;2023-02-15T14:51:58;13.20;99.90
6756;DHT22;3415;51.148;7.014;2023-02-15T14:57:34;13.20;99.90
6756;DHT22;3415;51.148;7.014;2023-02-15T15:02:46;13.20;99.90
6756;DHT22;3415;51.148;7.014;2023-02-15T15:05:18;13.10;99.90
6756;DHT22;3415;51.148;7.014;2023-02-15T15:07:48;13.10;99.90
6756;DHT22;3415;51.148;7.014;2023-02-15T15:10:36;13.00;99.90
6756;DHT22;3415;51.148;7.014;2023-02-15T15:13:37;13.00;99.90
6756;DHT22;3415;51.148;7.014;2023-02-15T15:19:11;13.00;99.90
6756;DHT22;3415;51.148;7.014;2023-02-15T15:21:55;13.00;99.90
6756;DHT22;3415;51.148;7.014;2023-02-15T15:24:47;13.00;99.90
6756;DHT22;3415;51.148;7.014;2023-02-15T15:27:44;12.90;99.90
6756;DHT22;3415;51.148;7.014;2023-02-15T15:30:49;12.80;99.90
6756;DHT22;3415;51.148;7.014;2023-02-15T15:33:44;12.80;99.90
6756;DHT22;3415;51.148;7.014;2023-02-15T15:36:29;12.70;99.90
6756;DHT22;3415;51.148;7.014;2023-02-15T15:39:15;12.60;99.90
6756;DHT22;3415;51.148;7.014;2023-02-15T15:41:51;12.60;99.90
6756;DHT22;3415;51.148;7.014;2023-02-15T15:47:49;12.40;99.90
6756;DHT22;3415;51.148;7.014;2023-02-15T15:50:19;12.30;99.90
6756;DHT22;3415;51.148;7.014;2023-02-15T15:52:49;12.30;99.90
6756;DHT22;3415;51.148;7.014;2023-02-15T15:55:19;12.20;99.90
6756;DHT22;3415;51.148;7.014;2023-02-15T15:57:49;12.10;99.90
6756;DHT22;3415;51.148;7.014;2023-02-15T16:00:31;12.00;99.90
6756;DHT22;3415;51.148;7.014;2023-02-15T16:03:01;12.00;99.90
6756;DHT22;3415;51.148;7.014;2023-02-15T16:05:35;12.00;99.90
6756;DHT22;3415;51.148;7.014;2023-02-15T16:08:03;11.90;99.90
6756;DHT22;3415;51.148;7.014;2023-02-15T16:10:31;11.80;99.90
6756;DHT22;3415;51.148;7.014;2023-02-15T16:12:59;11.70;99.90
6756;DHT22;3415;51.148;7.014;2023-02-15T16:15:36;11.60;99.90
6756;DHT22;3415;51.148;7.014;2023-02-15T16:18:13;11.60;99.90
6756;DHT22;3415;51.148;7.014;2023-02-15T16:20:42;11.50;99.90
6756;DHT22;3415;51.148;7.014;2023-02-15T16:23:27;11.50;99.90
6756;DHT22;3415;51.148;7.014;2023-02-15T16:26:01;11.30;99.90
6756;DHT22;3415;51.148;7.014;2023-02-15T16:28:32;11.10;99.90
6756;DHT22;3415;51.148;7.014;2023-02-15T16:31:06;11.50;99.90
6756;DHT22;3415;51.148;7.014;2023-02-15T16:33:39;11.10;99.90
6756;DHT22;3415;51.148;7.014;2023-02-15T16:36:10;10.90;99.90
6756;DHT22;3415;51.148;7.014;2023-02-15T16:44:16;10.60;99.90
6756;DHT22;3415;51.148;7.014;2023-02-15T16:46:47;10.40;99.90
6756;DHT22;3415;51.148;7.014;2023-02-15T16:49:18;10.40;99.90
6756;DHT22;3415;51.148;7.014;2023-02-15T16:51:55;10.20;99.90
6756;DHT22;3415;51.148;7.014;2023-02-15T16:54:24;10.20;99.90
6756;DHT22;3415;51.148;7.014;2023-02-15T16:56:51;10.10;99.90
6756;DHT22;3415;51.148;7.014;2023-02-15T16:59:31;9.90;99.90
6756;DHT22;3415;51.148;7.014;2023-02-15T17:01:58;9.70;99.90
6756;DHT22;3415;51.148;7.014;2023-02-15T17:04:29;9.30;99.90
6756;DHT22;3415;51.148;7.014;2023-02-15T17:07:00;9.70;99.90
6756;DHT22;3415;51.148;7.014;2023-02-15T17:09:27;9.50;99.90
6756;DHT22;3415;51.148;7.014;2023-02-15T17:11:54;9.50;99.90
6756;DHT22;3415;51.148;7.014;2023-02-15T17:14:28;9.40;99.90
6756;DHT22;3415;51.148;7.014;2023-02-15T17:17:00;9.40;99.90
6756;DHT22;3415;51.148;7.014;2023-02-15T17:19:30;9.50;99.90
6756;DHT22;3415;51.148;7.014;2023-02-15T17:21:59;9.50;99.90
6756;DHT22;3415;51.148;7.014;2023-02-15T17:24:36;9.40;99.90
6756;DHT22;3415;51.148;7.014;2023-02-15T17:27:07;9.30;99.90
6756;DHT22;3415;51.148;7.014;2023-02-15T17:29:38;9.30;99.90
6756;DHT22;3415;51.148;7.014;2023-02-15T17:32:14;9.20;99.90